Time;durP1;ratioP1;P1;durP2;ratioP2;P2;SDS_P1;SDS_P2;PMS_P1;PMS_P2;Temp;Humidity;BMP_temperature;BMP_pressure;BME280_temperature;BME280_humidity;BME280_pressure;Samples;Min_cycle;Max_cycle;Signal;HPM_P1;HPM_P2
2023/05/17 00:01:35;;;;;;;2.28;0.80;;;16.90;48.20;;;;;;6004981;29;20050;-73
2023/05/17 00:04:46;;;;;;;1.45;0.90;;;16.90;47.90;;;;;;6005054;29;20042;-74
2023/05/17 00:07:58;;;;;;;2.78;1.20;;;16.90;47.60;;;;;;6006694;29;20030;-75
2023/05/17 00:11:05;;;;;;;2.33;1.00;;;16.90;47.20;;;;;;5995705;29;20042;-75
2023/05/17 00:14:18;;;;;;;1.65;0.95;;;16.90;46.90;;;;;;5983747;29;20109;-74
2023/05/17 00:17:26;;;;;;;3.72;1.10;;;16.90;47.00;;;;;;5996429;29;20042;-75
2023/05/17 00:20:35;;;;;;;1.52;0.95;;;16.90;46.80;;;;;;5983009;29;20053;-75
2023/05/17 00:23:44;;;;;;;1.25;0.90;;;16.90;46.60;;;;;;5981530;29;20515;-75
2023/05/17 00:26:51;;;;;;;2.10;1.10;;;17.00;46.50;;;;;;5981215;29;20567;-75
2023/05/17 00:30:00;;;;;;;3.10;1.10;;;17.20;46.30;;;;;;5982805;29;20038;-74
2023/05/17 00:33:11;;;;;;;0.68;0.60;;;17.00;46.10;;;;;;5982429;29;20034;-75
2023/05/17 00:36:19;;;;;;;2.33;1.13;;;17.00;45.90;;;;;;5996143;29;20034;-73
2023/05/17 00:39:27;;;;;;;3.53;1.10;;;17.00;45.90;;;;;;5981049;29;20087;-74
2023/05/17 00:42:35;;;;;;;3.58;0.95;;;17.00;45.80;;;;;;5982297;29;20081;-75
2023/05/17 00:45:48;;;;;;;2.40;1.10;;;17.00;45.80;;;;;;5982340;29;20030;-74
2023/05/17 00:49:00;;;;;;;1.63;0.90;;;17.00;45.80;;;;;;5995495;29;20578;-74
2023/05/17 00:52:08;;;;;;;6.10;1.10;;;16.90;45.70;;;;;;5981786;29;20115;-74
2023/05/17 00:55:18;;;;;;;3.83;1.00;;;16.90;45.50;;;;;;5982341;29;20039;-73
2023/05/17 00:58:28;;;;;;;1.65;0.80;;;16.90;45.50;;;;;;5980002;29;20042;-75
2023/05/17 01:01:37;;;;;;;9.15;1.10;;;16.90;45.50;;;;;;5982004;29;20038;-74
2023/05/17 01:04:44;;;;;;;6.53;1.10;;;16.90;45.30;;;;;;5982043;29;20030;-74
2023/05/17 01:07:53;;;;;;;3.47;0.87;;;16.90;45.40;;;;;;5983682;29;20052;-74
2023/05/17 01:11:15;;;;;;;4.50;1.20;;;16.90;45.50;;;;;;5985889;29;20041;-76
2023/05/17 01:14:51;;;;;;;3.28;0.93;;;16.80;45.40;;;;;;5986386;29;20034;-74
2023/05/17 01:18:19;;;;;;;8.60;0.95;;;16.80;45.40;;;;;;5984170;29;20046;-74
2023/05/17 01:21:35;;;;;;;1.42;0.90;;;16.80;45.40;;;;;;5986108;29;20559;-74
2023/05/17 01:25:02;;;;;;;0.70;0.60;;;16.80;45.50;;;;;;5986072;29;20091;-75
2023/05/17 01:28:13;;;;;;;2.92;0.68;;;16.80;45.50;;;;;;5986267;29;20034;-77
2023/05/17 01:31:23;;;;;;;4.22;1.10;;;16.80;45.50;;;;;;5984728;29;20042;-76
2023/05/17 01:34:32;;;;;;;3.22;0.95;;;16.80;45.50;;;;;;5999898;29;20152;-74
2023/05/17 01:37:41;;;;;;;1.33;0.90;;;16.80;45.60;;;;;;5985403;29;20041;-75
2023/05/17 01:41:12;;;;;;;6.97;1.35;;;16.80;45.60;;;;;;5986104;29;20053;-75
2023/05/17 01:44:30;;;;;;;2.65;1.08;;;16.80;45.60;;;;;;5985396;29;20046;-76
2023/05/17 01:48:19;;;;;;;4.47;0.90;;;16.80;45.60;;;;;;5985569;29;20030;-74
2023/05/17 01:51:26;;;;;;;1.23;0.80;;;16.70;45.50;;;;;;5969573;29;20078;-73
2023/05/17 01:54:48;;;;;;;2.30;1.08;;;16.70;45.50;;;;;;6006809;29;20162;-73
2023/05/17 01:58:02;;;;;;;1.50;0.73;;;16.70;45.40;;;;;;6021281;29;20036;-74
2023/05/17 02:01:14;;;;;;;6.60;1.17;;;16.70;45.40;;;;;;6006698;29;20041;-74
2023/05/17 02:04:23;;;;;;;5.20;1.00;;;16.60;45.40;;;;;;5993100;29;20747;-74
2023/05/17 02:07:33;;;;;;;3.25;0.90;;;16.70;45.50;;;;;;5975514;29;20039;-75
2023/05/17 02:10:40;;;;;;;2.38;0.95;;;16.60;45.60;;;;;;5976161;29;20042;-74
2023/05/17 02:13:48;;;;;;;2.83;1.10;;;16.60;45.50;;;;;;5962991;29;20027;-73
2023/05/17 02:17:06;;;;;;;0.63;0.52;;;16.60;45.50;;;;;;5961392;29;20054;-72
2023/05/17 02:20:14;;;;;;;1.75;0.93;;;16.70;45.40;;;;;;5977966;29;20042;-75
2023/05/17 02:23:23;;;;;;;1.53;0.97;;;16.70;45.50;;;;;;5963196;29;20062;-74
2023/05/17 02:26:30;;;;;;;1.52;0.85;;;16.70;45.40;;;;;;5973436;29;20035;-75
2023/05/17 02:29:39;;;;;;;3.58;1.00;;;16.70;45.40;;;;;;5984732;29;20797;-74
2023/05/17 02:32:44;;;;;;;2.70;0.98;;;16.70;45.40;;;;;;5983264;29;20102;-74
2023/05/17 02:35:58;;;;;;;2.47;0.98;;;16.70;45.30;;;;;;5983376;29;20038;-73
2023/05/17 02:39:08;;;;;;;1.65;0.70;;;16.70;45.20;;;;;;5983777;29;20054;-75
2023/05/17 02:42:15;;;;;;;2.45;0.95;;;16.70;45.20;;;;;;5998173;29;20053;-75
2023/05/17 02:45:24;;;;;;;6.00;1.25;;;16.70;45.40;;;;;;5968294;29;20042;-74
2023/05/17 02:48:30;;;;;;;4.57;0.90;;;16.70;45.40;;;;;;5967921;29;20549;-74
2023/05/17 02:51:37;;;;;;;3.15;0.70;;;16.60;45.40;;;;;;5989008;29;20041;-73
2023/05/17 02:54:43;;;;;;;1.77;0.70;;;16.60;45.40;;;;;;6005448;29;20074;-75
2023/05/17 02:57:50;;;;;;;1.75;0.98;;;16.60;45.40;;;;;;6005872;29;20112;-75
2023/05/17 03:00:59;;;;;;;1.63;0.90;;;16.60;45.40;;;;;;5989898;29;20539;-77
2023/05/17 03:04:12;;;;;;;1.60;0.82;;;16.50;45.50;;;;;;5972086;29;20224;-75
2023/05/17 03:07:17;;;;;;;;;;;16.50;45.60;;;;;;5975484;29;20042;-73
2023/05/17 03:10:26;;;;;;;2.97;1.23;;;16.50;45.60;;;;;;5961963;29;20042;-76
2023/05/17 03:13:35;;;;;;;1.42;1.00;;;16.40;45.60;;;;;;5974845;29;20031;-74
2023/05/17 03:16:41;;;;;;;1.27;0.60;;;16.40;45.80;;;;;;5961412;29;20622;-75
2023/05/17 03:19:50;;;;;;;0.65;0.60;;;16.40;45.90;;;;;;5960130;29;20039;-75
2023/05/17 03:22:56;;;;;;;1.42;0.85;;;16.30;45.90;;;;;;5974602;29;20154;-75
2023/05/17 03:26:07;;;;;;;3.30;1.08;;;16.30;46.00;;;;;;5983998;29;20042;-78
2023/05/17 03:29:33;;;;;;;4.22;0.90;;;16.30;46.00;;;;;;5983565;29;20082;-75
2023/05/17 03:32:43;;;;;;;4.97;1.05;;;16.30;46.00;;;;;;5983184;29;20038;-73
2023/05/17 03:35:47;;;;;;;1.80;0.90;;;16.20;46.10;;;;;;5982144;29;20034;-76
2023/05/17 03:39:01;;;;;;;5.43;1.27;;;16.20;46.70;;;;;;5984034;29;20038;-75
2023/05/17 03:42:15;;;;;;;3.58;1.15;;;16.20;46.20;;;;;;5996850;29;20089;-75
2023/05/17 03:45:21;;;;;;;2.17;1.00;;;16.10;46.30;;;;;;5983094;29;20038;-74
2023/05/17 03:48:27;;;;;;;5.57;1.48;;;16.10;46.40;;;;;;5996521;29;20036;-75
2023/05/17 03:51:36;;;;;;;2.05;0.98;;;16.00;46.60;;;;;;5986234;29;20427;-74
2023/05/17 03:54:44;;;;;;;1.98;1.10;;;16.00;46.70;;;;;;6004493;29;20155;-75
2023/05/17 03:57:52;;;;;;;4.78;1.00;;;16.00;46.80;;;;;;5981583;29;20034;-74
2023/05/17 04:01:06;;;;;;;1.50;0.85;;;15.90;46.90;;;;;;5966650;29;20039;-74
2023/05/17 04:04:17;;;;;;;2.75;0.82;;;15.90;47.00;;;;;;5960251;29;20087;-74
2023/05/17 04:07:29;;;;;;;2.33;0.90;;;15.90;47.10;;;;;;5958716;29;20054;-74
2023/05/17 04:10:35;;;;;;;9.35;1.77;;;15.80;47.20;;;;;;5959770;29;20041;-75
2023/05/17 04:13:41;;;;;;;6.25;1.08;;;15.80;47.30;;;;;;5958907;29;20085;-73
2023/05/17 04:16:47;;;;;;;2.15;0.93;;;15.80;47.30;;;;;;5960821;29;20091;-76
2023/05/17 04:20:00;;;;;;;9.57;1.17;;;15.80;47.50;;;;;;5977509;29;20046;-74
2023/05/17 04:23:11;;;;;;;5.85;0.70;;;15.80;47.60;;;;;;5982015;29;20050;-74
2023/05/17 04:26:19;;;;;;;;;;;15.80;47.70;;;;;;5983101;29;20034;-75
2023/05/17 04:29:25;;;;;;;3.20;0.82;;;15.70;47.70;;;;;;5981260;29;19923;-74
2023/05/17 04:32:32;;;;;;;2.72;0.98;;;15.70;47.80;;;;;;5996591;29;20528;-75
2023/05/17 04:35:44;;;;;;;5.57;1.35;;;15.70;48.00;;;;;;5981832;29;20065;-76
2023/05/17 04:38:49;;;;;;;2.13;1.08;;;15.70;48.30;;;;;;5982784;29;20139;-75
2023/05/17 04:42:02;;;;;;;2.35;1.27;;;15.60;48.30;;;;;;5982322;29;20398;-77
2023/05/17 04:45:18;;;;;;;3.38;1.20;;;15.60;48.40;;;;;;5987868;29;20471;-73
2023/05/17 04:48:25;;;;;;;1.17;0.80;;;15.50;48.40;;;;;;5990550;29;20065;-78
2023/05/17 04:51:31;;;;;;;;;;;15.50;48.60;;;;;;5993480;29;20456;-73
2023/05/17 04:54:36;;;;;;;2.10;1.10;;;15.50;48.60;;;;;;5987484;29;20033;-74
2023/05/17 04:57:44;;;;;;;7.05;1.20;;;15.50;48.60;;;;;;5985604;29;20043;-78
2023/05/17 05:00:53;;;;;;;4.78;1.17;;;15.50;48.80;;;;;;5985439;29;20041;-76
2023/05/17 05:04:06;;;;;;;2.75;1.00;;;15.50;49.00;;;;;;5970629;29;20094;-75
2023/05/17 05:07:19;;;;;;;4.68;1.08;;;15.40;48.90;;;;;;5999237;29;20046;-74
2023/05/17 05:10:27;;;;;;;3.13;1.10;;;15.40;49.00;;;;;;5986817;29;20659;-75
2023/05/17 05:13:37;;;;;;;5.65;1.25;;;15.40;49.10;;;;;;5986656;29;20033;-75
2023/05/17 05:16:46;;;;;;;5.32;1.38;;;15.40;49.00;;;;;;5985362;29;20045;-75
2023/05/17 05:19:56;;;;;;;1.48;0.98;;;15.40;49.10;;;;;;5999548;29;20042;-75
2023/05/17 05:23:06;;;;;;;6.57;1.58;;;15.40;49.10;;;;;;5984553;29;20063;-73
2023/05/17 05:26:16;;;;;;;11.77;1.42;;;15.40;49.10;;;;;;5984684;29;20054;-75
2023/05/17 05:29:25;;;;;;;4.57;1.13;;;15.40;49.20;;;;;;5986186;29;20035;-75
2023/05/17 05:32:32;;;;;;;9.05;1.25;;;15.30;49.30;;;;;;5999504;29;20041;-75
2023/05/17 05:35:40;;;;;;;5.38;1.38;;;15.40;49.40;;;;;;5985936;29;20082;-76
2023/05/17 05:38:52;;;;;;;6.40;0.80;;;15.40;49.40;;;;;;5984550;29;20109;-77
2023/05/17 05:42:00;;;;;;;1.88;1.08;;;15.30;49.40;;;;;;5985281;29;20058;-75
2023/05/17 05:45:10;;;;;;;5.60;1.38;;;15.30;49.50;;;;;;5969019;29;20156;-76
2023/05/17 05:48:23;;;;;;;3.17;0.90;;;15.30;49.50;;;;;;6000204;29;20046;-76
2023/05/17 05:51:30;;;;;;;3.00;1.27;;;15.20;49.40;;;;;;5989078;29;20116;-74
2023/05/17 05:54:37;;;;;;;3.53;1.35;;;15.20;49.50;;;;;;5998775;29;20125;-75
2023/05/17 05:57:42;;;;;;;1.50;0.90;;;15.20;49.50;;;;;;5983698;29;20039;-75
2023/05/17 06:00:46;;;;;;;2.92;1.02;;;15.20;49.50;;;;;;5983601;29;20030;-75
2023/05/17 06:03:58;;;;;;;2.33;1.05;;;15.20;49.60;;;;;;5983785;29;20654;-73
2023/05/17 06:07:05;;;;;;;8.00;1.20;;;15.20;49.50;;;;;;5984549;29;20045;-75
2023/05/17 06:10:14;;;;;;;5.93;1.40;;;15.20;49.60;;;;;;5984616;29;20034;-74
2023/05/17 06:13:20;;;;;;;6.20;0.95;;;15.20;50.00;;;;;;5984676;29;20041;-75
2023/05/17 06:16:30;;;;;;;7.20;1.35;;;15.20;49.70;;;;;;5983348;29;20364;-73
2023/05/17 06:19:35;;;;;;;3.95;1.27;;;15.20;49.60;;;;;;5998722;29;20057;-73
2023/05/17 06:22:41;;;;;;;4.18;1.27;;;15.20;49.50;;;;;;5984037;29;20045;-74
2023/05/17 06:25:47;;;;;;;4.47;1.40;;;15.20;49.40;;;;;;5984938;29;20119;-74
2023/05/17 06:28:57;;;;;;;3.38;1.08;;;15.20;49.30;;;;;;5983131;29;20030;-75
2023/05/17 06:32:07;;;;;;;1.70;1.20;;;15.20;49.30;;;;;;5982765;29;20049;-74
2023/05/17 06:35:17;;;;;;;5.93;1.40;;;15.20;49.30;;;;;;5984482;29;20059;-75
2023/05/17 06:38:24;;;;;;;1.30;1.15;;;15.30;49.30;;;;;;5982692;29;20103;-74
2023/05/17 06:41:35;;;;;;;3.78;1.33;;;15.30;49.10;;;;;;5984960;29;20125;-75
2023/05/17 06:44:42;;;;;;;5.68;1.25;;;15.30;49.00;;;;;;5984351;29;20062;-74
2023/05/17 06:47:49;;;;;;;3.20;1.02;;;15.30;49.00;;;;;;5983158;29;20072;-75
2023/05/17 06:51:00;;;;;;;5.18;1.50;;;15.30;49.00;;;;;;5982834;29;20095;-76
2023/05/17 06:54:11;;;;;;;15.32;1.70;;;15.40;48.90;;;;;;5962120;29;20092;-76
2023/05/17 06:57:19;;;;;;;6.30;0.75;;;15.40;48.90;;;;;;5960624;29;20058;-73
2023/05/17 07:00:27;;;;;;;7.13;1.42;;;15.40;48.80;;;;;;5975768;29;20031;-76
2023/05/17 07:03:33;;;;;;;2.88;1.40;;;15.40;48.80;;;;;;5960378;29;20037;-75
2023/05/17 07:06:39;;;;;;;3.75;1.23;;;15.40;48.70;;;;;;5963913;29;20117;-75
2023/05/17 07:09:47;;;;;;;8.50;1.13;;;15.40;48.60;;;;;;5983720;29;20148;-74
2023/05/17 07:13:05;;;;;;;4.00;1.23;;;15.40;48.60;;;;;;5983116;29;20086;-74
2023/05/17 07:16:13;;;;;;;14.05;1.30;;;15.40;48.60;;;;;;5983050;29;20062;-78
2023/05/17 07:19:19;;;;;;;2.45;1.10;;;15.40;48.60;;;;;;5967507;29;20088;-75
2023/05/17 07:22:29;;;;;;;1.65;1.00;;;15.50;48.50;;;;;;5982661;29;20049;-76
2023/05/17 07:25:37;;;;;;;4.45;1.20;;;15.50;48.40;;;;;;5997012;29;20037;-74
2023/05/17 07:28:44;;;;;;;1.80;1.10;;;15.50;48.30;;;;;;5983245;29;20030;-79
2023/05/17 07:31:59;;;;;;;3.95;1.00;;;15.60;48.40;;;;;;5983730;29;20042;-74
2023/05/17 07:35:09;;;;;;;2.28;1.00;;;15.70;48.40;;;;;;5986095;29;20138;-74
2023/05/17 07:38:17;;;;;;;11.18;1.30;;;15.70;48.20;;;;;;5967643;29;20046;-74
2023/05/17 07:41:27;;;;;;;2.92;1.08;;;15.70;48.00;;;;;;5984000;29;20094;-76
2023/05/17 07:44:37;;;;;;;5.50;1.50;;;15.70;48.00;;;;;;5982342;29;20066;-75
2023/05/17 07:47:44;;;;;;;3.45;1.15;;;15.70;48.00;;;;;;5982139;29;20040;-77
2023/05/17 07:50:53;;;;;;;7.05;1.50;;;15.60;47.90;;;;;;5983505;29;20038;-76
2023/05/17 07:54:10;;;;;;;2.70;0.98;;;15.60;48.10;;;;;;5983297;29;20064;-75
2023/05/17 07:57:18;;;;;;;2.83;1.02;;;15.60;48.70;;;;;;5981830;29;20038;-77
2023/05/17 08:00:28;;;;;;;3.53;1.10;;;15.60;48.10;;;;;;5983548;29;20050;-75
2023/05/17 08:03:46;;;;;;;5.85;1.58;;;15.60;48.20;;;;;;5982348;29;20038;-75
2023/05/17 08:06:54;;;;;;;4.10;1.50;;;15.60;48.20;;;;;;5982017;29;20126;-74
2023/05/17 08:10:09;;;;;;;2.95;1.20;;;15.50;48.20;;;;;;5982681;29;20415;-77
2023/05/17 08:13:17;;;;;;;4.13;1.25;;;15.60;48.40;;;;;;5997188;29;20030;-74
2023/05/17 08:16:26;;;;;;;2.17;0.83;;;15.70;48.30;;;;;;5981332;29;20085;-77
2023/05/17 08:19:35;;;;;;;3.40;1.48;;;15.70;48.30;;;;;;5982854;29;20121;-75
2023/05/17 08:22:43;;;;;;;6.80;1.35;;;15.70;48.30;;;;;;5982291;29;20054;-74
2023/05/17 08:25:52;;;;;;;5.80;1.20;;;15.80;48.20;;;;;;5981844;29;20101;-75
2023/05/17 08:29:04;;;;;;;4.28;1.40;;;15.90;48.00;;;;;;5980945;29;20047;-76
2023/05/17 08:32:13;;;;;;;3.90;1.08;;;15.90;48.40;;;;;;5982486;29;20031;-76
2023/05/17 08:35:21;;;;;;;4.93;1.08;;;15.90;47.90;;;;;;5980803;29;20039;-74
2023/05/17 08:38:30;;;;;;;5.13;1.63;;;15.90;47.80;;;;;;5980801;29;20194;-77
2023/05/17 08:41:38;;;;;;;7.00;1.40;;;15.90;47.80;;;;;;5982120;29;20069;-75
2023/05/17 08:44:46;;;;;;;2.45;1.20;;;16.00;47.90;;;;;;5982355;29;20042;-76
2023/05/17 08:47:57;;;;;;;4.45;1.58;;;16.00;47.90;;;;;;5982606;29;20041;-75
2023/05/17 08:51:10;;;;;;;6.15;1.40;;;16.00;48.00;;;;;;5983801;29;20109;-77
2023/05/17 08:54:17;;;;;;;7.57;1.48;;;15.90;47.90;;;;;;6019291;29;20046;-75
2023/05/17 08:57:29;;;;;;;1.92;0.98;;;15.90;47.90;;;;;;6003471;29;20201;-75
2023/05/17 09:00:35;;;;;;;1.73;1.17;;;15.90;47.90;;;;;;6004148;29;20060;-76
2023/05/17 09:03:49;;;;;;;3.42;1.10;;;15.90;48.00;;;;;;6003785;29;20038;-75
2023/05/17 09:06:56;;;;;;;2.67;1.42;;;15.90;48.00;;;;;;6004122;29;20048;-76
2023/05/17 09:10:12;;;;;;;4.07;1.92;;;15.90;48.10;;;;;;6003783;29;20141;-76
2023/05/17 09:13:19;;;;;;;9.20;1.85;;;15.90;48.10;;;;;;6003015;29;20038;-77
2023/05/17 09:16:28;;;;;;;6.85;1.30;;;15.90;48.20;;;;;;6018897;29;20086;-75
2023/05/17 09:19:33;;;;;;;5.45;1.60;;;15.90;48.20;;;;;;6003162;29;20037;-74
2023/05/17 09:22:45;;;;;;;4.90;1.42;;;16.00;48.30;;;;;;6005226;29;20091;-77
2023/05/17 09:25:51;;;;;;;5.20;1.70;;;16.00;48.20;;;;;;6004809;29;20117;-75
2023/05/17 09:29:00;;;;;;;6.05;1.67;;;16.00;48.10;;;;;;6008578;29;20037;-78
2023/05/17 09:32:27;;;;;;;4.15;1.58;;;16.10;48.00;;;;;;6009574;29;20057;-74
2023/05/17 09:35:36;;;;;;;6.65;1.15;;;16.10;48.10;;;;;;5962381;29;20115;-77
2023/05/17 09:39:00;;;;;;;6.50;1.05;;;16.10;48.00;;;;;;5946292;29;20059;-74
2023/05/17 09:42:33;;;;;;;2.45;1.50;;;15.90;47.90;;;;;;5962366;29;20130;-75
2023/05/17 09:45:40;;;;;;;6.20;1.30;;;16.10;48.10;;;;;;5947212;29;20142;-75
2023/05/17 09:48:57;;;;;;;8.20;1.35;;;16.10;48.00;;;;;;5962137;29;20107;-75
2023/05/17 09:52:08;;;;;;;8.23;1.70;;;16.10;48.00;;;;;;5981785;29;20061;-75
2023/05/17 09:55:16;;;;;;;2.78;1.33;;;16.20;47.90;;;;;;6007449;29;20050;-75
2023/05/17 09:58:24;;;;;;;2.70;1.00;;;16.20;47.80;;;;;;5999846;29;20049;-77
2023/05/17 10:01:35;;;;;;;4.20;1.45;;;16.20;47.80;;;;;;5984015;29;20427;-74
2023/05/17 10:04:45;;;;;;;5.97;1.42;;;16.30;47.70;;;;;;5969480;29;20038;-76
2023/05/17 10:07:57;;;;;;;5.80;1.27;;;16.30;47.50;;;;;;5984665;29;20070;-76
2023/05/17 10:11:11;;;;;;;6.72;1.30;;;16.20;47.80;;;;;;5985187;29;20042;-76
2023/05/17 10:14:21;;;;;;;5.43;1.42;;;16.20;48.00;;;;;;5983778;29;20181;-75
2023/05/17 10:17:31;;;;;;;4.28;1.40;;;16.20;47.90;;;;;;5984056;29;20156;-76
2023/05/17 10:20:39;;;;;;;8.50;1.77;;;16.30;47.90;;;;;;5971096;29;20141;-74
2023/05/17 10:23:47;;;;;;;4.05;1.27;;;16.30;47.80;;;;;;5986669;29;20039;-74
2023/05/17 10:26:55;;;;;;;14.07;1.48;;;16.30;47.80;;;;;;6004231;29;20070;-75
2023/05/17 10:30:01;;;;;;;8.93;2.15;;;16.40;47.90;;;;;;5999910;29;20456;-77
2023/05/17 10:33:15;;;;;;;5.38;2.30;;;16.40;47.70;;;;;;5978680;29;20035;-76
2023/05/17 10:36:24;;;;;;;1.67;1.10;;;16.50;47.80;;;;;;5961636;29;20285;-76
2023/05/17 10:39:33;;;;;;;3.55;1.75;;;16.60;47.80;;;;;;5961922;29;20457;-77
2023/05/17 10:42:53;;;;;;;3.92;1.67;;;16.60;47.50;;;;;;5961174;29;20477;-75
2023/05/17 10:46:23;;;;;;;3.15;1.27;;;16.60;47.40;;;;;;5962673;29;20042;-76
2023/05/17 10:49:40;;;;;;;4.00;1.48;;;16.70;48.00;;;;;;5960608;29;20503;-75
2023/05/17 10:52:51;;;;;;;5.43;1.70;;;16.70;47.30;;;;;;5974000;29;20034;-73
2023/05/17 10:56:02;;;;;;;11.85;1.40;;;16.60;47.30;;;;;;5983918;29;20045;-75
2023/05/17 10:59:28;;;;;;;3.15;1.38;;;16.70;47.30;;;;;;5982537;29;20034;-75
2023/05/17 11:02:33;;;;;;;7.15;1.95;;;16.70;47.30;;;;;;5983057;29;20065;-75
2023/05/17 11:05:44;;;;;;;6.28;1.63;;;16.70;47.30;;;;;;5983346;29;20035;-74
2023/05/17 11:09:22;;;;;;;5.82;1.08;;;16.70;47.30;;;;;;5967905;29;20107;-77
2023/05/17 11:12:37;;;;;;;3.70;1.50;;;16.70;47.20;;;;;;5984417;29;20034;-77
2023/05/17 11:16:03;;;;;;;5.80;1.38;;;16.70;47.20;;;;;;5997513;29;20276;-76
2023/05/17 11:19:15;;;;;;;3.05;1.08;;;16.80;47.20;;;;;;5982864;29;20438;-74
2023/05/17 11:22:37;;;;;;;7.82;1.55;;;16.80;47.20;;;;;;5997512;29;20091;-75
2023/05/17 11:25:45;;;;;;;6.07;1.52;;;16.80;47.20;;;;;;5983682;29;20038;-76
2023/05/17 11:29:03;;;;;;;4.07;1.50;;;16.90;47.20;;;;;;5983711;29;20066;-75
2023/05/17 11:32:18;;;;;;;4.38;1.38;;;16.90;47.20;;;;;;5981908;29;20401;-76
2023/05/17 11:35:27;;;;;;;5.90;1.52;;;16.90;47.10;;;;;;5984088;29;20419;-76
2023/05/17 11:38:33;;;;;;;4.47;1.20;;;17.00;47.20;;;;;;5983694;29;20023;-75
2023/05/17 11:41:47;;;;;;;2.08;1.20;;;17.00;47.20;;;;;;5982568;29;20141;-75
2023/05/17 11:45:05;;;;;;;4.57;1.52;;;17.00;47.10;;;;;;5983105;29;20050;-75
2023/05/17 11:48:19;;;;;;;5.03;1.73;;;17.00;47.00;;;;;;5982665;29;20026;-75
2023/05/17 11:51:33;;;;;;;2.90;1.27;;;17.00;46.90;;;;;;5983085;29;20046;-76
2023/05/17 11:54:43;;;;;;;5.70;1.17;;;17.00;46.90;;;;;;5967615;29;20404;-74
2023/05/17 11:57:52;;;;;;;4.35;1.42;;;17.00;46.80;;;;;;5997239;29;20034;-75
2023/05/17 12:01:05;;;;;;;4.03;1.30;;;17.00;46.80;;;;;;5982797;29;20041;-74
2023/05/17 12:04:13;;;;;;;3.33;1.40;;;17.10;46.90;;;;;;5997910;29;20034;-74
2023/05/17 12:07:28;;;;;;;7.22;1.42;;;17.10;46.90;;;;;;5982654;29;20125;-74
2023/05/17 12:10:36;;;;;;;2.20;1.20;;;17.10;46.80;;;;;;5982689;29;20099;-74
2023/05/17 12:13:45;;;;;;;5.67;1.40;;;17.20;46.70;;;;;;5966713;29;20058;-75
2023/05/17 12:17:08;;;;;;;5.78;1.35;;;17.20;46.50;;;;;;5981988;29;20078;-74
2023/05/17 12:20:18;;;;;;;4.38;1.42;;;17.20;46.50;;;;;;5981831;29;20125;-74
2023/05/17 12:23:31;;;;;;;;;;;17.30;46.40;;;;;;5991328;29;20031;-75
2023/05/17 12:26:51;;;;;;;2.50;1.20;;;17.40;46.40;;;;;;5981099;29;19924;-74
2023/05/17 12:30:16;;;;;;;8.57;1.17;;;17.40;46.30;;;;;;5983034;29;20040;-75
2023/05/17 12:33:22;;;;;;;4.63;1.20;;;17.50;46.30;;;;;;5979125;29;20042;-75
2023/05/17 12:36:32;;;;;;;8.65;1.40;;;17.50;46.20;;;;;;5982966;29;20066;-75
2023/05/17 12:39:40;;;;;;;7.10;2.03;;;17.50;46.30;;;;;;5980970;29;20057;-73
2023/05/17 12:42:47;;;;;;;6.13;1.48;;;17.60;46.30;;;;;;5981094;29;20058;-76
2023/05/17 12:46:18;;;;;;;2.42;1.17;;;17.70;46.20;;;;;;5982068;29;20042;-75
2023/05/17 12:49:26;;;;;;;6.40;1.33;;;17.90;46.10;;;;;;5911635;30;20174;-74
2023/05/17 12:52:36;;;;;;;3.72;1.50;;;17.90;45.90;;;;;;5898049;30;20089;-75
2023/05/17 12:55:48;;;;;;;5.45;1.10;;;18.00;45.90;;;;;;5897724;30;20043;-75
2023/05/17 12:59:28;;;;;;;5.13;1.33;;;18.00;46.30;;;;;;5911539;30;20109;-74
2023/05/17 13:02:41;;;;;;;1.38;0.90;;;18.10;45.70;;;;;;5867682;30;20049;-74
2023/05/17 13:06:13;;;;;;;4.68;1.17;;;18.20;45.50;;;;;;5858105;30;20048;-74
2023/05/17 13:09:22;;;;;;;2.65;1.27;;;18.20;45.30;;;;;;5858546;30;20099;-75
2023/05/17 13:12:38;;;;;;;5.28;1.27;;;18.30;45.30;;;;;;5857740;30;20040;-77
2023/05/17 13:15:46;;;;;;;2.45;0.95;;;18.40;45.20;;;;;;5871651;30;20055;-76
2023/05/17 13:18:51;;;;;;;4.45;1.30;;;18.40;45.20;;;;;;5869069;30;20054;-75
2023/05/17 13:22:01;;;;;;;3.15;1.52;;;18.40;45.10;;;;;;5875428;30;20048;-74
2023/05/17 13:25:11;;;;;;;8.48;1.30;;;18.50;45.10;;;;;;5852713;30;20136;-75
2023/05/17 13:28:19;;;;;;;5.28;1.05;;;18.50;45.00;;;;;;5901237;30;20067;-75
2023/05/17 13:31:28;;;;;;;5.43;1.45;;;18.50;45.00;;;;;;5900929;30;20119;-76
2023/05/17 13:34:36;;;;;;;9.35;1.40;;;18.50;45.10;;;;;;5900706;30;20103;-73
2023/05/17 13:37:42;;;;;;;1.75;1.27;;;18.40;45.10;;;;;;5925558;29;20446;-74
2023/05/17 13:40:52;;;;;;;5.18;1.42;;;18.40;45.20;;;;;;5968703;29;20030;-76
2023/05/17 13:44:03;;;;;;;4.60;1.52;;;18.40;45.20;;;;;;5998728;29;20043;-73
2023/05/17 13:47:18;;;;;;;3.55;1.60;;;18.40;45.30;;;;;;5983028;29;20132;-77
2023/05/17 13:50:24;;;;;;;2.58;1.33;;;18.40;45.30;;;;;;5998717;29;20055;-75
2023/05/17 13:53:30;;;;;;;4.78;1.25;;;18.40;45.30;;;;;;5983622;29;20069;-75
2023/05/17 13:56:36;;;;;;;6.35;1.58;;;18.40;45.20;;;;;;5968524;29;20435;-76
2023/05/17 13:59:45;;;;;;;3.33;1.40;;;18.40;45.20;;;;;;5998804;29;20076;-74
2023/05/17 14:02:51;;;;;;;2.85;1.10;;;18.30;45.10;;;;;;5983569;29;20050;-75
2023/05/17 14:06:05;;;;;;;3.53;1.40;;;18.40;45.10;;;;;;5984171;29;20070;-74
2023/05/17 14:09:14;;;;;;;4.03;1.50;;;18.50;45.00;;;;;;5998624;29;20086;-75
2023/05/17 14:12:22;;;;;;;5.88;1.35;;;18.60;45.00;;;;;;5983975;29;20034;-76
2023/05/17 14:15:28;;;;;;;12.30;1.20;;;18.60;45.00;;;;;;5998106;29;20501;-75
2023/05/17 14:18:40;;;;;;;2.78;1.48;;;18.70;44.90;;;;;;6000239;29;20054;-74
2023/05/17 14:21:48;;;;;;;2.00;1.05;;;18.70;44.70;;;;;;5984129;29;20191;-74
2023/05/17 14:25:00;;;;;;;10.10;1.30;;;18.70;44.70;;;;;;6000070;29;20117;-75
2023/05/17 14:28:11;;;;;;;1.67;1.40;;;18.70;44.60;;;;;;5972493;29;20062;-76
2023/05/17 14:31:19;;;;;;;5.35;1.40;;;18.70;44.60;;;;;;5998274;29;20058;-75
2023/05/17 14:34:29;;;;;;;2.22;0.90;;;18.70;44.70;;;;;;5983531;29;20049;-75
2023/05/17 14:37:36;;;;;;;4.45;1.10;;;18.80;44.50;;;;;;5984394;29;20046;-76
2023/05/17 14:40:42;;;;;;;4.15;1.13;;;18.80;44.40;;;;;;5983301;29;20098;-75
2023/05/17 14:43:53;;;;;;;2.95;1.17;;;18.80;44.40;;;;;;5984921;29;20065;-76
2023/05/17 14:47:05;;;;;;;5.85;1.45;;;18.90;44.40;;;;;;5984982;29;20046;-75
2023/05/17 14:50:11;;;;;;;11.18;1.80;;;19.00;44.20;;;;;;5984947;29;20038;-74
2023/05/17 14:53:19;;;;;;;2.50;1.17;;;19.00;44.10;;;;;;5983754;29;20111;-75
2023/05/17 14:56:28;;;;;;;2.35;1.10;;;19.00;44.00;;;;;;5997720;29;20184;-75
2023/05/17 14:59:32;;;;;;;5.80;1.45;;;19.00;43.90;;;;;;5983896;29;20049;-76
2023/05/17 15:02:40;;;;;;;1.85;1.15;;;19.00;43.90;;;;;;5983749;29;20056;-76
2023/05/17 15:05:58;;;;;;;8.93;1.13;;;19.00;43.80;;;;;;5998153;29;20034;-76
2023/05/17 15:09:13;;;;;;;2.88;1.05;;;19.00;43.90;;;;;;5984312;29;20046;-76
2023/05/17 15:12:23;;;;;;;5.43;1.38;;;19.00;43.70;;;;;;5982124;29;20034;-76
2023/05/17 15:15:30;;;;;;;3.30;1.20;;;19.00;43.70;;;;;;5982694;29;20511;-77
2023/05/17 15:18:36;;;;;;;2.03;1.20;;;19.10;43.80;;;;;;5997207;29;20130;-75
2023/05/17 15:21:43;;;;;;;3.13;1.65;;;19.10;43.90;;;;;;5982709;29;20046;-75
2023/05/17 15:24:56;;;;;;;3.42;1.45;;;19.10;44.00;;;;;;5981954;29;20052;-76
2023/05/17 15:28:11;;;;;;;7.07;2.17;;;19.10;44.10;;;;;;5981872;29;20076;-74
2023/05/17 15:31:19;;;;;;;11.68;1.80;;;19.10;44.40;;;;;;5983658;29;20113;-78
2023/05/17 15:34:29;;;;;;;4.93;1.75;;;19.10;44.70;;;;;;5981827;29;20038;-77
2023/05/17 15:37:34;;;;;;;5.47;2.42;;;19.20;45.00;;;;;;5967059;29;20541;-73
2023/05/17 15:40:43;;;;;;;6.32;2.58;;;19.20;45.30;;;;;;5981912;29;20050;-74
2023/05/17 15:43:48;;;;;;;;;;;19.10;45.60;;;;;;5967543;29;20049;-73
2023/05/17 15:46:58;;;;;;;11.20;2.67;;;19.10;45.90;;;;;;5981684;29;19921;-75
2023/05/17 15:50:02;;;;;;;6.05;2.47;;;19.10;46.10;;;;;;5980656;29;20038;-74
2023/05/17 15:53:13;;;;;;;5.13;2.30;;;19.10;46.30;;;;;;5965272;29;20031;-75
2023/05/17 15:56:22;;;;;;;;;;;19.10;46.50;;;;;;5961845;29;20038;-72
2023/05/17 15:59:29;;;;;;;18.77;2.33;;;19.10;47.20;;;;;;5959046;29;19917;-74
2023/05/17 16:02:36;;;;;;;6.53;3.03;;;19.00;46.50;;;;;;5976094;29;20110;-75
2023/05/17 16:05:41;;;;;;;8.43;2.03;;;19.00;46.60;;;;;;5963654;29;20262;-75
2023/05/17 16:08:48;;;;;;;2.95;2.00;;;19.00;46.60;;;;;;5983294;29;20030;-76
2023/05/17 16:12:04;;;;;;;4.57;1.77;;;19.00;46.70;;;;;;5984233;29;20525;-78
2023/05/17 16:15:11;;;;;;;10.45;2.55;;;19.00;46.70;;;;;;5981253;29;20035;-75
2023/05/17 16:18:19;;;;;;;10.88;3.00;;;19.00;46.60;;;;;;5982461;29;20065;-77
2023/05/17 16:21:28;;;;;;;;;;;19.00;46.50;;;;;;5982200;29;20050;-77
2023/05/17 16:24:35;;;;;;;5.40;2.50;;;19.10;46.50;;;;;;5982346;29;19924;-77
2023/05/17 16:27:43;;;;;;;6.95;2.60;;;19.10;46.40;;;;;;5995866;29;20515;-74
2023/05/17 16:30:48;;;;;;;;;;;19.10;46.50;;;;;;5996703;29;20031;-74
2023/05/17 16:33:58;;;;;;;6.82;2.40;;;19.10;46.50;;;;;;5982439;29;19917;-76